sensor_id;sensor_type;location;lat;lon;timestamp;P1;P2;P0
82151;PMS5003;71721;47.904;-122.188;2023-10-08T00:02:25;6;6;
82151;PMS5003;71721;47.904;-122.188;2023-10-08T00:04:50;5;5;
82151;PMS5003;71721;47.904;-122.188;2023-10-08T00:07:15;8;7;
82151;PMS5003;71721;47.904;-122.188;2023-10-08T00:09:40;7;7;
82151;PMS5003;71721;47.904;-122.188;2023-10-08T00:12:06;8;8;
82151;PMS5003;71721;47.904;-122.188;2023-10-08T00:14:31;7;7;
82151;PMS5003;71721;47.904;-122.188;2023-10-08T00:16:57;6;6;
82151;PMS5003;71721;47.904;-122.188;2023-10-08T00:19:22;8;8;
82151;PMS5003;71721;47.904;-122.188;2023-10-08T00:21:48;8;8;
82151;PMS5003;71721;47.904;-122.188;2023-10-08T00:24:13;7;7;
82151;PMS5003;71721;47.904;-122.188;2023-10-08T00:26:39;7;7;
82151;PMS5003;71721;47.904;-122.188;2023-10-08T00:29:05;8;8;
82151;PMS5003;71721;47.904;-122.188;2023-10-08T00:31:30;9;8;
82151;PMS5003;71721;47.904;-122.188;2023-10-08T00:33:55;9;9;
82151;PMS5003;71721;47.904;-122.188;2023-10-08T00:36:21;7;7;
82151;PMS5003;71721;47.904;-122.188;2023-10-08T00:38:47;7;7;
82151;PMS5003;71721;47.904;-122.188;2023-10-08T00:41:12;8;8;
82151;PMS5003;71721;47.904;-122.188;2023-10-08T00:43:37;7;7;
82151;PMS5003;71721;47.904;-122.188;2023-10-08T00:46:02;8;7;
82151;PMS5003;71721;47.904;-122.188;2023-10-08T00:48:27;8;8;
82151;PMS5003;71721;47.904;-122.188;2023-10-08T00:50:52;6;6;
82151;PMS5003;71721;47.904;-122.188;2023-10-08T00:53:17;9;9;
82151;PMS5003;71721;47.904;-122.188;2023-10-08T00:55:42;5;5;
82151;PMS5003;71721;47.904;-122.188;2023-10-08T00:58:07;10;9;
82151;PMS5003;71721;47.904;-122.188;2023-10-08T01:00:32;8;8;
82151;PMS5003;71721;47.904;-122.188;2023-10-08T01:02:57;8;8;
82151;PMS5003;71721;47.904;-122.188;2023-10-08T01:05:22;7;7;
82151;PMS5003;71721;47.904;-122.188;2023-10-08T01:07:47;9;9;
82151;PMS5003;71721;47.904;-122.188;2023-10-08T01:10:12;9;9;
82151;PMS5003;71721;47.904;-122.188;2023-10-08T01:12:38;8;8;
82151;PMS5003;71721;47.904;-122.188;2023-10-08T01:15:03;9;8;
82151;PMS5003;71721;47.904;-122.188;2023-10-08T01:17:28;6;6;
82151;PMS5003;71721;47.904;-122.188;2023-10-08T01:19:53;9;9;
82151;PMS5003;71721;47.904;-122.188;2023-10-08T01:22:18;9;8;
82151;PMS5003;71721;47.904;-122.188;2023-10-08T01:24:43;8;8;
82151;PMS5003;71721;47.904;-122.188;2023-10-08T01:27:09;8;8;
82151;PMS5003;71721;47.904;-122.188;2023-10-08T01:29:34;8;8;
82151;PMS5003;71721;47.904;-122.188;2023-10-08T01:31:59;7;7;
82151;PMS5003;71721;47.904;-122.188;2023-10-08T01:34:24;7;6;
82151;PMS5003;71721;47.904;-122.188;2023-10-08T01:36:49;11;11;
82151;PMS5003;71721;47.904;-122.188;2023-10-08T01:39:14;10;10;
82151;PMS5003;71721;47.904;-122.188;2023-10-08T01:41:39;10;10;
82151;PMS5003;71721;47.904;-122.188;2023-10-08T01:44:05;9;9;
82151;PMS5003;71721;47.904;-122.188;2023-10-08T01:46:30;10;10;
82151;PMS5003;71721;47.904;-122.188;2023-10-08T01:48:55;12;11;
82151;PMS5003;71721;47.904;-122.188;2023-10-08T01:51:20;12;12;
82151;PMS5003;71721;47.904;-122.188;2023-10-08T01:53:45;10;10;
82151;PMS5003;71721;47.904;-122.188;2023-10-08T01:56:10;13;13;
82151;PMS5003;71721;47.904;-122.188;2023-10-08T01:58:36;13;11;
82151;PMS5003;71721;47.904;-122.188;2023-10-08T02:01:01;12;12;
82151;PMS5003;71721;47.904;-122.188;2023-10-08T02:03:27;13;12;
82151;PMS5003;71721;47.904;-122.188;2023-10-08T02:05:52;13;12;
82151;PMS5003;71721;47.904;-122.188;2023-10-08T02:08:17;14;14;
82151;PMS5003;71721;47.904;-122.188;2023-10-08T02:10:43;14;14;
82151;PMS5003;71721;47.904;-122.188;2023-10-08T02:13:08;16;16;
82151;PMS5003;71721;47.904;-122.188;2023-10-08T02:15:35;19;18;
82151;PMS5003;71721;47.904;-122.188;2023-10-08T02:17:59;20;20;
82151;PMS5003;71721;47.904;-122.188;2023-10-08T02:20:25;18;17;
82151;PMS5003;71721;47.904;-122.188;2023-10-08T02:22:50;18;17;
82151;PMS5003;71721;47.904;-122.188;2023-10-08T02:25:16;16;16;
82151;PMS5003;71721;47.904;-122.188;2023-10-08T02:27:41;19;18;
82151;PMS5003;71721;47.904;-122.188;2023-10-08T02:30:07;16;16;
82151;PMS5003;71721;47.904;-122.188;2023-10-08T02:32:31;16;16;
82151;PMS5003;71721;47.904;-122.188;2023-10-08T02:34:57;17;17;
82151;PMS5003;71721;47.904;-122.188;2023-10-08T02:37:22;15;14;
82151;PMS5003;71721;47.904;-122.188;2023-10-08T02:39:47;14;14;
82151;PMS5003;71721;47.904;-122.188;2023-10-08T02:42:13;18;18;
82151;PMS5003;71721;47.904;-122.188;2023-10-08T02:44:40;22;22;
82151;PMS5003;71721;47.904;-122.188;2023-10-08T02:47:04;22;22;
82151;PMS5003;71721;47.904;-122.188;2023-10-08T02:49:35;21;21;
82151;PMS5003;71721;47.904;-122.188;2023-10-08T02:51:54;25;25;
82151;PMS5003;71721;47.904;-122.188;2023-10-08T02:54:21;23;23;
82151;PMS5003;71721;47.904;-122.188;2023-10-08T02:56:46;19;19;
82151;PMS5003;71721;47.904;-122.188;2023-10-08T02:59:11;24;24;
82151;PMS5003;71721;47.904;-122.188;2023-10-08T03:01:36;20;20;
82151;PMS5003;71721;47.904;-122.188;2023-10-08T03:04:01;18;18;
82151;PMS5003;71721;47.904;-122.188;2023-10-08T03:06:27;17;17;
82151;PMS5003;71721;47.904;-122.188;2023-10-08T03:08:52;16;16;
82151;PMS5003;71721;47.904;-122.188;2023-10-08T03:11:18;15;15;
82151;PMS5003;71721;47.904;-122.188;2023-10-08T03:13:45;14;14;
82151;PMS5003;71721;47.904;-122.188;2023-10-08T03:16:11;15;15;
82151;PMS5003;71721;47.904;-122.188;2023-10-08T03:18:34;15;14;
82151;PMS5003;71721;47.904;-122.188;2023-10-08T03:21:00;15;15;
82151;PMS5003;71721;47.904;-122.188;2023-10-08T03:23:26;16;16;
82151;PMS5003;71721;47.904;-122.188;2023-10-08T03:25:52;16;16;
82151;PMS5003;71721;47.904;-122.188;2023-10-08T03:28:16;17;17;
82151;PMS5003;71721;47.904;-122.188;2023-10-08T03:30:42;19;18;
82151;PMS5003;71721;47.904;-122.188;2023-10-08T03:33:07;15;15;
82151;PMS5003;71721;47.904;-122.188;2023-10-08T03:35:34;16;16;
82151;PMS5003;71721;47.904;-122.188;2023-10-08T03:37:58;16;16;
82151;PMS5003;71721;47.904;-122.188;2023-10-08T03:40:24;15;15;
82151;PMS5003;71721;47.904;-122.188;2023-10-08T03:42:49;18;17;
82151;PMS5003;71721;47.904;-122.188;2023-10-08T03:45:14;20;20;
82151;PMS5003;71721;47.904;-122.188;2023-10-08T03:47:39;23;23;
82151;PMS5003;71721;47.904;-122.188;2023-10-08T03:50:06;20;20;
82151;PMS5003;71721;47.904;-122.188;2023-10-08T03:52:30;20;20;
82151;PMS5003;71721;47.904;-122.188;2023-10-08T03:54:55;20;20;
82151;PMS5003;71721;47.904;-122.188;2023-10-08T03:57:20;17;17;
82151;PMS5003;71721;47.904;-122.188;2023-10-08T03:59:46;17;17;
82151;PMS5003;71721;47.904;-122.188;2023-10-08T04:02:12;19;19;
82151;PMS5003;71721;47.904;-122.188;2023-10-08T04:04:37;25;25;
82151;PMS5003;71721;47.904;-122.188;2023-10-08T04:07:02;24;24;
82151;PMS5003;71721;47.904;-122.188;2023-10-08T04:09:27;27;27;
82151;PMS5003;71721;47.904;-122.188;2023-10-08T04:11:52;47;47;
82151;PMS5003;71721;47.904;-122.188;2023-10-08T04:14:18;39;39;
82151;PMS5003;71721;47.904;-122.188;2023-10-08T04:16:44;34;34;
82151;PMS5003;71721;47.904;-122.188;2023-10-08T04:19:09;24;24;
82151;PMS5003;71721;47.904;-122.188;2023-10-08T04:21:34;30;30;
82151;PMS5003;71721;47.904;-122.188;2023-10-08T04:23:59;34;33;
82151;PMS5003;71721;47.904;-122.188;2023-10-08T04:26:24;30;29;
82151;PMS5003;71721;47.904;-122.188;2023-10-08T04:28:50;25;25;
82151;PMS5003;71721;47.904;-122.188;2023-10-08T04:31:14;29;28;
82151;PMS5003;71721;47.904;-122.188;2023-10-08T04:33:41;29;29;
82151;PMS5003;71721;47.904;-122.188;2023-10-08T04:36:06;28;28;
82151;PMS5003;71721;47.904;-122.188;2023-10-08T04:38:31;27;27;
82151;PMS5003;71721;47.904;-122.188;2023-10-08T04:40:55;26;25;
82151;PMS5003;71721;47.904;-122.188;2023-10-08T04:43:22;26;26;
82151;PMS5003;71721;47.904;-122.188;2023-10-08T04:45:46;26;26;
82151;PMS5003;71721;47.904;-122.188;2023-10-08T04:48:11;31;30;
82151;PMS5003;71721;47.904;-122.188;2023-10-08T04:50:37;26;26;
82151;PMS5003;71721;47.904;-122.188;2023-10-08T04:53:02;29;29;
82151;PMS5003;71721;47.904;-122.188;2023-10-08T04:55:28;35;34;
82151;PMS5003;71721;47.904;-122.188;2023-10-08T04:57:53;31;30;
82151;PMS5003;71721;47.904;-122.188;2023-10-08T05:00:18;32;32;
82151;PMS5003;71721;47.904;-122.188;2023-10-08T05:02:43;31;29;
82151;PMS5003;71721;47.904;-122.188;2023-10-08T05:05:08;31;31;
82151;PMS5003;71721;47.904;-122.188;2023-10-08T05:07:34;24;24;
82151;PMS5003;71721;47.904;-122.188;2023-10-08T05:09:59;25;25;
82151;PMS5003;71721;47.904;-122.188;2023-10-08T05:12:24;24;24;
82151;PMS5003;71721;47.904;-122.188;2023-10-08T05:14:55;25;25;
82151;PMS5003;71721;47.904;-122.188;2023-10-08T05:17:15;27;25;
82151;PMS5003;71721;47.904;-122.188;2023-10-08T05:19:40;27;25;
82151;PMS5003;71721;47.904;-122.188;2023-10-08T05:22:06;24;21;
82151;PMS5003;71721;47.904;-122.188;2023-10-08T05:22:08;24;21;
82151;PMS5003;71721;47.904;-122.188;2023-10-08T05:24:33;26;25;
82151;PMS5003;71721;47.904;-122.188;2023-10-08T05:26:58;28;28;
82151;PMS5003;71721;47.904;-122.188;2023-10-08T05:29:24;29;29;
82151;PMS5003;71721;47.904;-122.188;2023-10-08T05:31:49;27;27;
82151;PMS5003;71721;47.904;-122.188;2023-10-08T05:34:14;26;26;
82151;PMS5003;71721;47.904;-122.188;2023-10-08T05:36:39;25;25;
82151;PMS5003;71721;47.904;-122.188;2023-10-08T05:39:05;27;27;
82151;PMS5003;71721;47.904;-122.188;2023-10-08T05:41:31;26;26;
82151;PMS5003;71721;47.904;-122.188;2023-10-08T05:43:55;25;25;
82151;PMS5003;71721;47.904;-122.188;2023-10-08T05:46:20;31;29;
82151;PMS5003;71721;47.904;-122.188;2023-10-08T05:48:46;27;26;
82151;PMS5003;71721;47.904;-122.188;2023-10-08T05:51:11;26;26;
82151;PMS5003;71721;47.904;-122.188;2023-10-08T05:53:36;24;24;
82151;PMS5003;71721;47.904;-122.188;2023-10-08T05:56:05;26;25;
82151;PMS5003;71721;47.904;-122.188;2023-10-08T05:58:27;25;25;
82151;PMS5003;71721;47.904;-122.188;2023-10-08T06:00:52;23;23;
82151;PMS5003;71721;47.904;-122.188;2023-10-08T06:03:22;25;25;
82151;PMS5003;71721;47.904;-122.188;2023-10-08T06:05:44;24;24;
82151;PMS5003;71721;47.904;-122.188;2023-10-08T06:08:08;21;21;
82151;PMS5003;71721;47.904;-122.188;2023-10-08T06:10:34;24;24;
82151;PMS5003;71721;47.904;-122.188;2023-10-08T06:12:59;23;23;
82151;PMS5003;71721;47.904;-122.188;2023-10-08T06:15:24;23;23;
82151;PMS5003;71721;47.904;-122.188;2023-10-08T06:17:49;19;19;
82151;PMS5003;71721;47.904;-122.188;2023-10-08T06:20:15;23;22;
82151;PMS5003;71721;47.904;-122.188;2023-10-08T06:22:40;19;18;
82151;PMS5003;71721;47.904;-122.188;2023-10-08T06:25:06;21;20;
82151;PMS5003;71721;47.904;-122.188;2023-10-08T06:27:31;18;18;
82151;PMS5003;71721;47.904;-122.188;2023-10-08T06:29:56;16;16;
82151;PMS5003;71721;47.904;-122.188;2023-10-08T06:32:21;17;17;
82151;PMS5003;71721;47.904;-122.188;2023-10-08T06:34:46;19;19;
82151;PMS5003;71721;47.904;-122.188;2023-10-08T06:37:12;18;18;
82151;PMS5003;71721;47.904;-122.188;2023-10-08T06:39:37;18;18;
82151;PMS5003;71721;47.904;-122.188;2023-10-08T06:42:04;24;24;
82151;PMS5003;71721;47.904;-122.188;2023-10-08T06:44:29;19;18;
82151;PMS5003;71721;47.904;-122.188;2023-10-08T06:46:53;20;19;
82151;PMS5003;71721;47.904;-122.188;2023-10-08T06:49:19;22;21;
82151;PMS5003;71721;47.904;-122.188;2023-10-08T06:51:46;25;25;
82151;PMS5003;71721;47.904;-122.188;2023-10-08T06:54:10;19;19;
82151;PMS5003;71721;47.904;-122.188;2023-10-08T06:56:36;20;20;
82151;PMS5003;71721;47.904;-122.188;2023-10-08T06:59:01;18;18;
82151;PMS5003;71721;47.904;-122.188;2023-10-08T07:01:26;26;25;
82151;PMS5003;71721;47.904;-122.188;2023-10-08T07:03:52;20;20;
82151;PMS5003;71721;47.904;-122.188;2023-10-08T07:06:17;23;23;
82151;PMS5003;71721;47.904;-122.188;2023-10-08T07:08:42;21;21;
82151;PMS5003;71721;47.904;-122.188;2023-10-08T07:11:07;25;24;
82151;PMS5003;71721;47.904;-122.188;2023-10-08T07:13:33;25;24;
82151;PMS5003;71721;47.904;-122.188;2023-10-08T07:15:58;27;27;
82151;PMS5003;71721;47.904;-122.188;2023-10-08T07:18:23;26;26;
82151;PMS5003;71721;47.904;-122.188;2023-10-08T07:20:49;27;26;
82151;PMS5003;71721;47.904;-122.188;2023-10-08T07:23:14;27;26;
82151;PMS5003;71721;47.904;-122.188;2023-10-08T07:25:39;31;30;
82151;PMS5003;71721;47.904;-122.188;2023-10-08T07:28:05;26;26;
82151;PMS5003;71721;47.904;-122.188;2023-10-08T07:30:30;33;33;
82151;PMS5003;71721;47.904;-122.188;2023-10-08T07:32:55;32;31;
82151;PMS5003;71721;47.904;-122.188;2023-10-08T07:35:21;29;28;
82151;PMS5003;71721;47.904;-122.188;2023-10-08T07:37:46;31;31;
82151;PMS5003;71721;47.904;-122.188;2023-10-08T07:40:12;29;29;
82151;PMS5003;71721;47.904;-122.188;2023-10-08T07:42:37;29;29;
82151;PMS5003;71721;47.904;-122.188;2023-10-08T07:45:03;33;31;
82151;PMS5003;71721;47.904;-122.188;2023-10-08T07:47:28;34;33;
82151;PMS5003;71721;47.904;-122.188;2023-10-08T07:49:53;33;31;
82151;PMS5003;71721;47.904;-122.188;2023-10-08T07:52:19;27;27;
82151;PMS5003;71721;47.904;-122.188;2023-10-08T07:54:45;31;31;
82151;PMS5003;71721;47.904;-122.188;2023-10-08T07:57:10;28;27;
82151;PMS5003;71721;47.904;-122.188;2023-10-08T07:59:36;29;28;
82151;PMS5003;71721;47.904;-122.188;2023-10-08T08:02:01;32;31;
82151;PMS5003;71721;47.904;-122.188;2023-10-08T08:04:26;30;30;
82151;PMS5003;71721;47.904;-122.188;2023-10-08T08:06:52;30;30;
82151;PMS5003;71721;47.904;-122.188;2023-10-08T08:09:17;32;32;
82151;PMS5003;71721;47.904;-122.188;2023-10-08T08:11:43;31;31;
82151;PMS5003;71721;47.904;-122.188;2023-10-08T08:14:08;30;29;
82151;PMS5003;71721;47.904;-122.188;2023-10-08T08:16:33;28;28;
82151;PMS5003;71721;47.904;-122.188;2023-10-08T08:18:59;28;28;
82151;PMS5003;71721;47.904;-122.188;2023-10-08T08:21:24;34;33;
82151;PMS5003;71721;47.904;-122.188;2023-10-08T08:23:50;27;27;
82151;PMS5003;71721;47.904;-122.188;2023-10-08T08:26:16;31;30;
82151;PMS5003;71721;47.904;-122.188;2023-10-08T08:28:41;27;27;
82151;PMS5003;71721;47.904;-122.188;2023-10-08T08:31:06;28;27;
82151;PMS5003;71721;47.904;-122.188;2023-10-08T08:33:31;28;28;
82151;PMS5003;71721;47.904;-122.188;2023-10-08T08:35:58;28;27;
82151;PMS5003;71721;47.904;-122.188;2023-10-08T08:38:22;31;30;
82151;PMS5003;71721;47.904;-122.188;2023-10-08T08:40:47;32;32;
82151;PMS5003;71721;47.904;-122.188;2023-10-08T08:43:13;31;30;
82151;PMS5003;71721;47.904;-122.188;2023-10-08T08:45:39;27;27;
82151;PMS5003;71721;47.904;-122.188;2023-10-08T08:48:04;26;26;
82151;PMS5003;71721;47.904;-122.188;2023-10-08T08:50:29;25;24;
82151;PMS5003;71721;47.904;-122.188;2023-10-08T08:52:55;26;26;
82151;PMS5003;71721;47.904;-122.188;2023-10-08T08:55:21;28;28;
82151;PMS5003;71721;47.904;-122.188;2023-10-08T08:57:46;25;23;
82151;PMS5003;71721;47.904;-122.188;2023-10-08T09:00:12;24;23;
82151;PMS5003;71721;47.904;-122.188;2023-10-08T09:02:37;26;26;
82151;PMS5003;71721;47.904;-122.188;2023-10-08T09:05:02;24;24;
82151;PMS5003;71721;47.904;-122.188;2023-10-08T09:07:27;21;21;
82151;PMS5003;71721;47.904;-122.188;2023-10-08T09:09:54;25;25;
82151;PMS5003;71721;47.904;-122.188;2023-10-08T09:12:19;23;23;
82151;PMS5003;71721;47.904;-122.188;2023-10-08T09:14:44;23;23;
82151;PMS5003;71721;47.904;-122.188;2023-10-08T09:17:09;28;28;
82151;PMS5003;71721;47.904;-122.188;2023-10-08T09:19:36;24;23;
82151;PMS5003;71721;47.904;-122.188;2023-10-08T09:22:01;24;23;
82151;PMS5003;71721;47.904;-122.188;2023-10-08T09:24:26;26;26;
82151;PMS5003;71721;47.904;-122.188;2023-10-08T09:26:52;24;23;
82151;PMS5003;71721;47.904;-122.188;2023-10-08T09:29:17;24;24;
82151;PMS5003;71721;47.904;-122.188;2023-10-08T09:31:43;23;23;
82151;PMS5003;71721;47.904;-122.188;2023-10-08T09:34:08;23;23;
82151;PMS5003;71721;47.904;-122.188;2023-10-08T09:36:34;23;23;
82151;PMS5003;71721;47.904;-122.188;2023-10-08T09:38:58;21;21;
82151;PMS5003;71721;47.904;-122.188;2023-10-08T09:41:24;21;21;
82151;PMS5003;71721;47.904;-122.188;2023-10-08T09:43:49;24;23;
82151;PMS5003;71721;47.904;-122.188;2023-10-08T09:46:16;21;21;
82151;PMS5003;71721;47.904;-122.188;2023-10-08T09:48:41;26;24;
82151;PMS5003;71721;47.904;-122.188;2023-10-08T09:51:05;23;23;
82151;PMS5003;71721;47.904;-122.188;2023-10-08T09:53:32;25;25;
82151;PMS5003;71721;47.904;-122.188;2023-10-08T09:55:56;24;24;
82151;PMS5003;71721;47.904;-122.188;2023-10-08T09:58:22;21;21;
82151;PMS5003;71721;47.904;-122.188;2023-10-08T10:00:47;24;24;
82151;PMS5003;71721;47.904;-122.188;2023-10-08T10:03:12;24;23;
82151;PMS5003;71721;47.904;-122.188;2023-10-08T10:05:37;25;24;
82151;PMS5003;71721;47.904;-122.188;2023-10-08T10:08:03;23;23;
82151;PMS5003;71721;47.904;-122.188;2023-10-08T10:10:29;24;23;
82151;PMS5003;71721;47.904;-122.188;2023-10-08T10:12:56;23;23;
82151;PMS5003;71721;47.904;-122.188;2023-10-08T10:15:20;22;22;
82151;PMS5003;71721;47.904;-122.188;2023-10-08T10:17:44;22;22;
82151;PMS5003;71721;47.904;-122.188;2023-10-08T10:20:10;24;24;
82151;PMS5003;71721;47.904;-122.188;2023-10-08T10:22:35;23;23;
82151;PMS5003;71721;47.904;-122.188;2023-10-08T10:25:01;22;22;
82151;PMS5003;71721;47.904;-122.188;2023-10-08T10:27:26;23;23;
82151;PMS5003;71721;47.904;-122.188;2023-10-08T10:29:53;21;21;
82151;PMS5003;71721;47.904;-122.188;2023-10-08T10:32:17;23;22;
82151;PMS5003;71721;47.904;-122.188;2023-10-08T10:34:43;21;21;
82151;PMS5003;71721;47.904;-122.188;2023-10-08T10:37:08;25;24;
82151;PMS5003;71721;47.904;-122.188;2023-10-08T10:39:34;21;20;
82151;PMS5003;71721;47.904;-122.188;2023-10-08T10:41:59;19;19;
82151;PMS5003;71721;47.904;-122.188;2023-10-08T10:44:24;24;24;
82151;PMS5003;71721;47.904;-122.188;2023-10-08T10:46:50;20;19;
82151;PMS5003;71721;47.904;-122.188;2023-10-08T10:49:15;23;23;
82151;PMS5003;71721;47.904;-122.188;2023-10-08T10:51:41;24;24;
82151;PMS5003;71721;47.904;-122.188;2023-10-08T10:54:06;25;25;
82151;PMS5003;71721;47.904;-122.188;2023-10-08T10:56:32;24;22;
82151;PMS5003;71721;47.904;-122.188;2023-10-08T10:58:58;26;25;
82151;PMS5003;71721;47.904;-122.188;2023-10-08T11:01:23;22;22;
82151;PMS5003;71721;47.904;-122.188;2023-10-08T11:03:48;28;24;
82151;PMS5003;71721;47.904;-122.188;2023-10-08T11:06:14;26;25;
82151;PMS5003;71721;47.904;-122.188;2023-10-08T11:08:40;25;24;
82151;PMS5003;71721;47.904;-122.188;2023-10-08T11:11:06;26;25;
82151;PMS5003;71721;47.904;-122.188;2023-10-08T11:13:32;26;26;
82151;PMS5003;71721;47.904;-122.188;2023-10-08T11:15:57;22;22;
82151;PMS5003;71721;47.904;-122.188;2023-10-08T11:18:23;24;23;
82151;PMS5003;71721;47.904;-122.188;2023-10-08T11:20:49;23;22;
82151;PMS5003;71721;47.904;-122.188;2023-10-08T11:23:30;23;23;
82151;PMS5003;71721;47.904;-122.188;2023-10-08T11:25:39;21;21;
82151;PMS5003;71721;47.904;-122.188;2023-10-08T11:28:05;22;21;
82151;PMS5003;71721;47.904;-122.188;2023-10-08T11:30:30;22;22;
82151;PMS5003;71721;47.904;-122.188;2023-10-08T11:32:55;22;22;
82151;PMS5003;71721;47.904;-122.188;2023-10-08T11:35:21;21;21;
82151;PMS5003;71721;47.904;-122.188;2023-10-08T11:37:46;24;24;
82151;PMS5003;71721;47.904;-122.188;2023-10-08T11:40:20;24;22;
82151;PMS5003;71721;47.904;-122.188;2023-10-08T11:42:37;22;22;
82151;PMS5003;71721;47.904;-122.188;2023-10-08T11:45:02;23;22;
82151;PMS5003;71721;47.904;-122.188;2023-10-08T11:47:28;20;20;
82151;PMS5003;71721;47.904;-122.188;2023-10-08T11:49:53;20;19;
82151;PMS5003;71721;47.904;-122.188;2023-10-08T11:52:18;29;28;
82151;PMS5003;71721;47.904;-122.188;2023-10-08T11:54:44;19;19;
82151;PMS5003;71721;47.904;-122.188;2023-10-08T11:57:09;24;22;
82151;PMS5003;71721;47.904;-122.188;2023-10-08T11:59:35;24;23;
82151;PMS5003;71721;47.904;-122.188;2023-10-08T12:02:00;21;21;
82151;PMS5003;71721;47.904;-122.188;2023-10-08T12:04:25;22;21;
82151;PMS5003;71721;47.904;-122.188;2023-10-08T12:06:51;21;21;
82151;PMS5003;71721;47.904;-122.188;2023-10-08T12:09:17;20;20;
82151;PMS5003;71721;47.904;-122.188;2023-10-08T12:11:42;21;21;
82151;PMS5003;71721;47.904;-122.188;2023-10-08T12:14:07;19;18;
82151;PMS5003;71721;47.904;-122.188;2023-10-08T12:16:33;21;21;
82151;PMS5003;71721;47.904;-122.188;2023-10-08T12:18:58;24;23;
82151;PMS5003;71721;47.904;-122.188;2023-10-08T12:21:23;21;21;
82151;PMS5003;71721;47.904;-122.188;2023-10-08T12:23:49;23;22;
82151;PMS5003;71721;47.904;-122.188;2023-10-08T12:26:15;23;22;
82151;PMS5003;71721;47.904;-122.188;2023-10-08T12:28:40;21;20;
82151;PMS5003;71721;47.904;-122.188;2023-10-08T12:31:05;21;20;
82151;PMS5003;71721;47.904;-122.188;2023-10-08T12:33:31;21;21;
82151;PMS5003;71721;47.904;-122.188;2023-10-08T12:35:56;21;21;
82151;PMS5003;71721;47.904;-122.188;2023-10-08T12:38:22;19;19;
82151;PMS5003;71721;47.904;-122.188;2023-10-08T12:40:47;19;19;
82151;PMS5003;71721;47.904;-122.188;2023-10-08T12:43:12;22;22;
82151;PMS5003;71721;47.904;-122.188;2023-10-08T12:45:37;20;19;
82151;PMS5003;71721;47.904;-122.188;2023-10-08T12:48:03;20;20;
82151;PMS5003;71721;47.904;-122.188;2023-10-08T12:50:28;21;21;
82151;PMS5003;71721;47.904;-122.188;2023-10-08T12:52:53;17;17;
82151;PMS5003;71721;47.904;-122.188;2023-10-08T12:55:19;21;17;
82151;PMS5003;71721;47.904;-122.188;2023-10-08T12:57:45;19;19;
82151;PMS5003;71721;47.904;-122.188;2023-10-08T13:00:10;19;19;
82151;PMS5003;71721;47.904;-122.188;2023-10-08T13:02:35;22;21;
82151;PMS5003;71721;47.904;-122.188;2023-10-08T13:05:00;20;20;
82151;PMS5003;71721;47.904;-122.188;2023-10-08T13:07:26;19;19;
82151;PMS5003;71721;47.904;-122.188;2023-10-08T13:09:51;20;19;
82151;PMS5003;71721;47.904;-122.188;2023-10-08T13:12:17;18;16;
82151;PMS5003;71721;47.904;-122.188;2023-10-08T13:14:42;16;16;
82151;PMS5003;71721;47.904;-122.188;2023-10-08T13:17:08;19;19;
82151;PMS5003;71721;47.904;-122.188;2023-10-08T13:19:33;17;16;
82151;PMS5003;71721;47.904;-122.188;2023-10-08T13:21:59;17;17;
82151;PMS5003;71721;47.904;-122.188;2023-10-08T13:24:24;21;20;
82151;PMS5003;71721;47.904;-122.188;2023-10-08T13:26:50;23;23;
82151;PMS5003;71721;47.904;-122.188;2023-10-08T13:29:15;16;16;
82151;PMS5003;71721;47.904;-122.188;2023-10-08T13:31:40;20;19;
82151;PMS5003;71721;47.904;-122.188;2023-10-08T13:34:06;18;17;
82151;PMS5003;71721;47.904;-122.188;2023-10-08T13:36:31;20;19;
82151;PMS5003;71721;47.904;-122.188;2023-10-08T13:38:57;21;20;
82151;PMS5003;71721;47.904;-122.188;2023-10-08T13:41:22;19;19;
82151;PMS5003;71721;47.904;-122.188;2023-10-08T13:43:48;17;16;
82151;PMS5003;71721;47.904;-122.188;2023-10-08T13:46:14;15;14;
82151;PMS5003;71721;47.904;-122.188;2023-10-08T13:48:39;17;15;
82151;PMS5003;71721;47.904;-122.188;2023-10-08T13:51:05;15;15;
82151;PMS5003;71721;47.904;-122.188;2023-10-08T13:53:30;17;17;
82151;PMS5003;71721;47.904;-122.188;2023-10-08T13:55:56;17;17;
82151;PMS5003;71721;47.904;-122.188;2023-10-08T13:58:21;18;17;
82151;PMS5003;71721;47.904;-122.188;2023-10-08T14:00:46;18;17;
82151;PMS5003;71721;47.904;-122.188;2023-10-08T14:03:12;15;15;
82151;PMS5003;71721;47.904;-122.188;2023-10-08T14:05:37;16;15;
82151;PMS5003;71721;47.904;-122.188;2023-10-08T14:08:02;16;16;
82151;PMS5003;71721;47.904;-122.188;2023-10-08T14:10:28;14;14;
82151;PMS5003;71721;47.904;-122.188;2023-10-08T14:12:53;15;15;
82151;PMS5003;71721;47.904;-122.188;2023-10-08T14:15:18;21;20;
82151;PMS5003;71721;47.904;-122.188;2023-10-08T14:17:44;18;18;
82151;PMS5003;71721;47.904;-122.188;2023-10-08T14:20:10;17;17;
82151;PMS5003;71721;47.904;-122.188;2023-10-08T14:22:35;18;17;
82151;PMS5003;71721;47.904;-122.188;2023-10-08T14:25:01;20;20;
82151;PMS5003;71721;47.904;-122.188;2023-10-08T14:27:26;19;19;
82151;PMS5003;71721;47.904;-122.188;2023-10-08T14:29:51;19;18;
82151;PMS5003;71721;47.904;-122.188;2023-10-08T14:32:17;17;17;
82151;PMS5003;71721;47.904;-122.188;2023-10-08T14:34:42;17;17;
82151;PMS5003;71721;47.904;-122.188;2023-10-08T14:37:07;16;16;
82151;PMS5003;71721;47.904;-122.188;2023-10-08T14:39:32;20;20;
82151;PMS5003;71721;47.904;-122.188;2023-10-08T14:41:58;15;14;
82151;PMS5003;71721;47.904;-122.188;2023-10-08T14:44:23;19;17;
82151;PMS5003;71721;47.904;-122.188;2023-10-08T14:46:49;15;15;
82151;PMS5003;71721;47.904;-122.188;2023-10-08T14:49:14;15;15;
82151;PMS5003;71721;47.904;-122.188;2023-10-08T14:51:39;20;20;
82151;PMS5003;71721;47.904;-122.188;2023-10-08T14:54:04;14;14;
82151;PMS5003;71721;47.904;-122.188;2023-10-08T14:56:29;14;14;
82151;PMS5003;71721;47.904;-122.188;2023-10-08T14:58:55;16;16;
82151;PMS5003;71721;47.904;-122.188;2023-10-08T15:01:20;14;14;
82151;PMS5003;71721;47.904;-122.188;2023-10-08T15:03:46;17;16;
82151;PMS5003;71721;47.904;-122.188;2023-10-08T15:06:11;16;16;
82151;PMS5003;71721;47.904;-122.188;2023-10-08T15:08:37;19;19;
82151;PMS5003;71721;47.904;-122.188;2023-10-08T15:11:02;17;17;
82151;PMS5003;71721;47.904;-122.188;2023-10-08T15:13:28;16;15;
82151;PMS5003;71721;47.904;-122.188;2023-10-08T15:15:53;16;15;
82151;PMS5003;71721;47.904;-122.188;2023-10-08T15:18:19;15;15;
82151;PMS5003;71721;47.904;-122.188;2023-10-08T15:20:44;18;18;